Tville, Georgia
Current Conditions -  °F | °C
As of 4:35 PM on Saturday 22 Nov 2014 (Local Time) from KTVI Reporting Station
Overcast Overcast  
Wind Chill: 61°   Ceiling: 800
Heat Index: 61°   Visibility: 7mi
Dew Point: 61°   Wind: 8mph
Humidity: 100%   Direction: 90°E
Pressure: 30.21"   Gusts: NA
Location:  30.8297°N, 83.9811°W
Report Text: KTVI 222135Z AUTO 09007KT 7SM BKN008 BKN027 OVC050 16/16 A3021 RMK AO2
Loading
Personal Weather Stations






























Interactive Weather Map New forecast layout! Learn more

10-Day Weather Forecast

Advertisements
Track Severe Weather on mobile